Impacts METAR Board
IDs:

KLAX - Los Angeles Intl, CA, US

Updated at: 0200 UTC 27 Jun 2019
Potential Impact None Slight Moderate High
Time 26/14Z 26/15Z 26/16Z 26/17Z 26/18Z 26/19Z 26/20Z 26/21Z 26/22Z 26/23Z 27/00Z 27/01Z 27/02Z
Temp62 63 63 64 65 65 68 69 69 67 67 67 65
Dewpt58 58 58 57 58 58 58 58 59 59 59 59 59
Altim29.94 29.96 29.98 29.98 29.98 29.99 29.99 29.98 29.98 29.97 29.96 29.95 29.95
VIS8 8 8 8 8 8 8 8 10 10 10 10 10
CIG24 13 25 15 25 21 30 30 14 14 15 -- --
CoverOVCOVCOVCOVCOVCOVCBKNBKNBKNBKNBKNSCTFEW
FltCatMVFRMVFRMVFRMVFRMVFRMVFRMVFRMVFRMVFRMVFRMVFRVFRVFR
WX--------------------------
WDir260230230230280260250250270250260260270
WSpd5 4 5 6 9 8 10 11 11 10 11 13 13
WGst-- -- -- -- -- -- -- -- -- -- -- -- --
Raw hourly METARs
KLAX 261353Z 26005KT 8SM FEW007 OVC024 17/14 A2994 RMK AO2 SLP138 T01670144 $
KLAX 261502Z 23004KT 8SM BKN013 OVC026 17/14 A2996 RMK AO2 T01720144 $
KLAX 261553Z 23005KT 8SM SCT016 OVC025 17/14 A2998 RMK AO2 SLP150 T01720144 $
KLAX 261653Z 23006KT 8SM BKN015 OVC022 18/14 A2998 RMK AO2 SLP149 T01780139 $
KLAX 261753Z 28009KT 8SM SCT017 OVC025 18/14 A2998 RMK AO2 SLP151 T01830144 10183 20161 51006 $
KLAX 261853Z 26008KT 8SM FEW015 BKN021 OVC026 18/14 A2999 RMK AO2 SLP155 T01830144 $
KLAX 261953Z 25010KT 8SM FEW017 SCT023 BKN030 20/14 A2999 RMK AO2 SLP153 T02000144 $
KLAX 262053Z 25011KT 8SM FEW018 SCT025 BKN030 21/14 A2998 RMK AO2 SLP151 T02060144 50000 $
KLAX 262153Z 27011KT 10SM BKN014 21/15 A2998 RMK AO2 SLP151 T02060150 $
KLAX 262253Z 25010KT 10SM BKN014 BKN020 19/15 A2997 RMK AO2 SLP148 T01940150 $
KLAX 262353Z 26011KT 10SM BKN015 19/15 A2996 RMK AO2 SLP145 T01940150 10211 20183 58006 $
KLAX 270053Z 26013KT 10SM SCT012 19/15 A2995 RMK AO2 SLP139 T01940150 $
KLAX 270153Z 27013KT 10SM FEW012 18/15 A2995 RMK AO2 SLP141 T01830150 $



Page loaded:  02:10 UTC  |   07:10 PM Pacific  |   08:10 PM Mountain  |   09:10 PM Central  |   10:10 PM Eastern

 

ADVISORIES

FORECASTS

FORECASTS

OBSERVATIONS

USER TOOLS

ABOUT US